createdAt,value
2022-11-25T00:00:40.612Z,10.45
2022-11-25T00:03:46.337Z,9.00
2022-11-25T00:06:51.533Z,8.15
2022-11-25T00:09:56.691Z,8.57
2022-11-25T00:13:04.374Z,7.38
2022-11-25T00:16:10.889Z,8.65
2022-11-25T00:19:16.157Z,7.22
2022-11-25T00:22:21.296Z,9.13
2022-11-25T00:25:26.500Z,11.18
2022-11-25T00:28:34.400Z,9.00
2022-11-25T00:31:40.343Z,8.38
2022-11-25T00:34:45.760Z,10.13
2022-11-25T00:37:50.985Z,8.05
2022-11-25T00:41:16.916Z,7.97
2022-11-25T00:44:38.034Z,9.93
2022-11-25T00:47:44.495Z,10.82
2022-11-25T00:50:49.494Z,11.55
2022-11-25T00:53:58.967Z,8.75
2022-11-25T00:57:04.530Z,9.40
2022-11-25T01:00:13.459Z,8.95
2022-11-25T01:03:19.603Z,9.75
2022-11-25T01:06:25.034Z,11.18
2022-11-25T01:09:32.372Z,11.63
2022-11-25T01:12:37.435Z,10.32
2022-11-25T01:15:45.552Z,8.55
2022-11-25T01:18:51.058Z,14.05
2022-11-25T01:21:57.875Z,12.07
2022-11-25T01:25:03.041Z,11.60
2022-11-25T01:28:08.690Z,11.68
2022-11-25T01:31:18.061Z,10.07
2022-11-25T01:34:24.453Z,9.18
2022-11-25T01:37:29.625Z,12.88
2022-11-25T01:40:35.008Z,13.32
2022-11-25T01:43:41.299Z,10.43
2022-11-25T01:46:53.380Z,11.45
2022-11-25T01:50:03.174Z,11.57
2022-11-25T01:53:10.724Z,11.18
2022-11-25T01:56:16.213Z,9.30
2022-11-25T01:59:21.851Z,12.70
2022-11-25T02:02:30.131Z,12.02
2022-11-25T02:05:41.061Z,10.05
2022-11-25T02:08:48.052Z,14.30
2022-11-25T02:11:55.386Z,10.82
2022-11-25T02:15:01.614Z,13.57
2022-11-25T02:18:11.152Z,14.10
2022-11-25T02:21:18.887Z,9.30
2022-11-25T02:24:26.227Z,13.25
2022-11-25T02:27:34.194Z,11.05
2022-11-25T02:30:39.986Z,16.30
2022-11-25T02:33:45.411Z,13.60
2022-11-25T02:36:50.489Z,15.07
2022-11-25T02:39:57.475Z,11.63
2022-11-25T02:43:05.168Z,12.38
2022-11-25T02:46:13.364Z,11.85
2022-11-25T02:49:23.594Z,12.40
2022-11-25T02:52:29.874Z,11.90
2022-11-25T02:55:35.135Z,12.75
2022-11-25T02:58:43.434Z,10.90
2022-11-25T03:04:53.778Z,15.55
2022-11-25T03:07:59.110Z,12.77
2022-11-25T03:11:04.318Z,14.45
2022-11-25T03:14:12.152Z,15.98
2022-11-25T03:17:17.330Z,14.07
2022-11-25T03:20:23.202Z,16.58
2022-11-25T03:23:28.371Z,11.35
2022-11-25T03:26:34.562Z,15.93
2022-11-25T03:29:42.404Z,14.45
2022-11-25T03:32:48.258Z,14.40
2022-11-25T03:35:53.452Z,13.20
2022-11-25T03:38:58.799Z,12.85
2022-11-25T03:42:04.433Z,12.50
2022-11-25T03:45:14.109Z,14.77
2022-11-25T03:48:19.514Z,16.05
2022-11-25T03:51:24.910Z,15.07
2022-11-25T03:54:31.200Z,16.75
2022-11-25T03:57:57.384Z,14.35
2022-11-25T04:01:07.237Z,13.63
2022-11-25T04:04:12.824Z,15.70
2022-11-25T04:07:17.874Z,15.10
2022-11-25T04:10:23.049Z,18.75
2022-11-25T04:13:28.321Z,18.35
2022-11-25T04:16:36.248Z,14.18
2022-11-25T04:22:46.757Z,15.30
2022-11-25T04:25:53.367Z,18.08
2022-11-25T04:29:03.982Z,19.17
2022-11-25T04:32:11.687Z,15.25
2022-11-25T04:35:16.866Z,17.85
2022-11-25T04:38:26.975Z,18.90
2022-11-25T04:41:33.482Z,18.05
2022-11-25T04:44:38.623Z,15.70
2022-11-25T04:47:46.539Z,16.83
2022-11-25T04:50:52.348Z,17.65
2022-11-25T04:53:57.813Z,17.85
2022-11-25T04:57:03.500Z,16.08
2022-11-25T05:00:09.635Z,19.50
2022-11-25T05:03:18.226Z,17.48
2022-11-25T05:06:23.485Z,37.90
2022-11-25T05:09:29.146Z,17.90
2022-11-25T05:12:42.206Z,15.57
2022-11-25T05:15:51.310Z,14.90
2022-11-25T05:19:01.073Z,18.25
2022-11-25T05:22:06.176Z,16.17
2022-11-25T05:25:12.096Z,18.35
2022-11-25T05:28:27.859Z,16.55
2022-11-25T05:31:33.040Z,19.60
2022-11-25T05:34:41.105Z,17.23
2022-11-25T05:37:47.393Z,17.23
2022-11-25T05:40:52.732Z,15.88
2022-11-25T05:43:57.915Z,17.40
2022-11-25T05:47:02.979Z,18.35
2022-11-25T05:50:11.335Z,14.23
2022-11-25T05:53:17.632Z,17.38
2022-11-25T05:56:24.376Z,19.55
2022-11-25T06:00:07.594Z,18.08
2022-11-25T06:03:21.894Z,19.42
2022-11-25T06:06:29.771Z,17.33
2022-11-25T06:09:34.926Z,14.80
2022-11-25T06:12:40.368Z,16.58
2022-11-25T06:15:45.982Z,16.88
2022-11-25T06:18:54.252Z,18.42
2022-11-25T06:22:02.597Z,14.43
2022-11-25T06:25:08.652Z,14.05
2022-11-25T06:28:15.859Z,17.63
2022-11-25T06:31:27.180Z,13.82
2022-11-25T06:34:43.071Z,15.40
2022-11-25T06:38:13.665Z,16.45
2022-11-25T06:41:18.932Z,12.65
2022-11-25T06:44:24.290Z,13.95
2022-11-25T06:47:29.555Z,17.40
2022-11-25T06:50:34.759Z,15.85
2022-11-25T06:53:42.879Z,13.98
2022-11-25T06:56:51.994Z,16.23
2022-11-25T06:59:57.179Z,16.70
2022-11-25T07:03:02.459Z,13.57
2022-11-25T07:06:07.888Z,15.38
2022-11-25T07:09:15.873Z,15.93
2022-11-25T07:12:21.077Z,19.60
2022-11-25T07:15:26.082Z,16.98
2022-11-25T07:18:32.124Z,16.05
2022-11-25T07:21:37.726Z,13.85
2022-11-25T07:24:45.562Z,14.82
2022-11-25T07:27:50.753Z,9.80
2022-11-25T07:31:22.787Z,17.50
2022-11-25T07:34:22.582Z,15.15
2022-11-25T07:37:28.062Z,17.00
2022-11-25T07:40:35.928Z,15.40
2022-11-25T07:43:41.205Z,17.47
2022-11-25T07:46:47.698Z,18.77
2022-11-25T07:49:52.968Z,12.63
2022-11-25T07:52:57.982Z,15.75
2022-11-25T07:56:09.098Z,15.60
2022-11-25T07:59:15.578Z,14.02
2022-11-25T08:02:20.783Z,18.80
2022-11-25T08:05:25.952Z,20.02
2022-11-25T08:08:31.195Z,19.02
2022-11-25T08:11:38.977Z,16.80
2022-11-25T08:14:44.167Z,13.98
2022-11-25T08:17:52.634Z,14.05
2022-11-25T08:21:01.997Z,18.63
2022-11-25T08:24:07.057Z,17.98
2022-11-25T08:27:15.006Z,16.27
2022-11-25T08:30:21.669Z,17.98
2022-11-25T08:33:26.731Z,13.80
2022-11-25T08:36:32.287Z,19.75
2022-11-25T08:39:54.033Z,13.15
2022-11-25T08:43:02.052Z,15.45
2022-11-25T08:46:10.660Z,18.83
2022-11-25T08:49:17.543Z,13.82
2022-11-25T08:52:23.005Z,11.93
2022-11-25T08:55:28.816Z,17.60
2022-11-25T08:58:39.944Z,12.70
2022-11-25T09:01:45.132Z,13.63
2022-11-25T09:04:50.422Z,11.48
2022-11-25T09:07:55.671Z,12.73
2022-11-25T09:11:01.085Z,16.48
2022-11-25T09:14:08.884Z,11.98
2022-11-25T09:17:15.970Z,17.83
2022-11-25T09:20:21.025Z,15.02
2022-11-25T09:23:26.587Z,12.48
2022-11-25T09:26:33.181Z,13.93
2022-11-25T09:29:41.258Z,16.58
2022-11-25T09:32:46.849Z,15.55
2022-11-25T09:35:52.137Z,16.88
2022-11-25T09:38:57.291Z,13.70
2022-11-25T09:42:21.024Z,11.55
2022-11-25T09:45:44.126Z,15.50
2022-11-25T09:48:54.180Z,11.35
2022-11-25T09:52:04.165Z,12.25
2022-11-25T09:55:10.607Z,20.67
2022-11-25T09:58:23.215Z,13.50
2022-11-25T10:01:32.249Z,12.52
2022-11-25T10:04:39.655Z,11.13
2022-11-25T10:07:46.513Z,13.57
2022-11-25T10:10:53.099Z,12.10
2022-11-25T10:14:01.537Z,13.43
2022-11-25T10:17:14.161Z,12.23
2022-11-25T10:20:23.178Z,11.32
2022-11-25T10:23:30.869Z,11.52
2022-11-25T10:26:40.410Z,12.27
2022-11-25T10:29:45.716Z,11.77
2022-11-25T10:33:02.019Z,16.25
2022-11-25T10:36:11.037Z,11.18
2022-11-25T10:39:17.291Z,14.85
2022-11-25T10:42:23.850Z,14.10
2022-11-25T10:45:32.269Z,21.02
2022-11-25T10:48:49.435Z,14.25
2022-11-25T10:51:54.931Z,12.57
2022-11-25T10:55:00.673Z,12.00
2022-11-25T10:58:22.736Z,12.32
2022-11-25T11:01:28.400Z,13.85
2022-11-25T11:04:36.313Z,15.48
2022-11-25T11:07:43.227Z,15.02
2022-11-25T11:10:52.923Z,12.98
2022-11-25T11:14:02.372Z,14.55
2022-11-25T11:17:07.402Z,15.60
2022-11-25T11:20:24.471Z,15.43
2022-11-25T11:23:30.189Z,13.30
2022-11-25T11:26:36.088Z,14.98
2022-11-25T11:29:41.322Z,15.70
2022-11-25T11:32:48.354Z,14.70
2022-11-25T11:35:58.722Z,13.60
2022-11-25T11:39:07.390Z,12.30
2022-11-25T11:42:16.745Z,13.63
2022-11-25T11:45:32.677Z,13.65
2022-11-25T11:48:41.645Z,15.30
2022-11-25T11:51:52.835Z,13.00
2022-11-25T11:55:03.745Z,11.38
2022-11-25T11:58:15.316Z,12.93
2022-11-25T12:01:29.781Z,18.85
2022-11-25T12:04:39.497Z,12.50
2022-11-25T12:07:50.192Z,13.75
2022-11-25T12:10:57.292Z,10.93
2022-11-25T12:14:03.816Z,11.00
2022-11-25T12:17:11.853Z,9.18
2022-11-25T12:20:20.089Z,12.00
2022-11-25T12:23:31.077Z,13.00
2022-11-25T12:26:41.495Z,10.45
2022-11-25T12:29:49.021Z,15.32
2022-11-25T12:33:02.178Z,22.63
2022-11-25T12:36:08.891Z,12.63
2022-11-25T12:39:22.769Z,11.02
2022-11-25T12:42:28.862Z,11.98
2022-11-25T12:45:34.426Z,10.65
2022-11-25T12:48:44.557Z,12.82
2022-11-25T12:51:57.945Z,11.50
2022-11-25T12:55:11.739Z,12.15
2022-11-25T12:58:33.224Z,14.32
2022-11-25T13:01:55.727Z,12.65
2022-11-25T13:08:57.335Z,12.45
2022-11-25T13:12:11.792Z,9.68
2022-11-25T13:15:29.197Z,11.68
2022-11-25T13:18:36.161Z,9.83
2022-11-25T13:21:57.535Z,10.48
2022-11-25T13:25:02.755Z,13.15
2022-11-25T13:28:30.413Z,8.45
2022-11-25T13:31:36.956Z,9.83
2022-11-25T13:34:42.258Z,11.05
2022-11-25T13:37:47.334Z,9.20
2022-11-25T13:40:59.649Z,10.32
2022-11-25T13:44:22.614Z,11.63
2022-11-25T13:47:34.200Z,9.73
2022-11-25T13:51:03.576Z,14.40
2022-11-25T13:54:07.576Z,12.75
2022-11-25T13:57:37.080Z,10.90
2022-11-25T14:00:52.053Z,11.82
2022-11-25T14:04:00.725Z,12.40
2022-11-25T14:07:10.335Z,13.73
2022-11-25T14:10:45.490Z,10.30
2022-11-25T14:14:01.457Z,10.65
2022-11-25T14:17:20.058Z,9.82
2022-11-25T14:20:31.262Z,11.25
2022-11-25T14:23:51.335Z,11.32
2022-11-25T14:26:57.351Z,11.75
2022-11-25T14:30:03.736Z,12.48
2022-11-25T14:33:14.635Z,11.43
2022-11-25T14:36:22.884Z,10.48
2022-11-25T14:39:29.375Z,11.50
2022-11-25T14:42:36.313Z,9.57
2022-11-25T14:45:41.760Z,11.55
2022-11-25T14:48:55.920Z,9.68
2022-11-25T14:52:01.303Z,14.10
2022-11-25T14:55:07.416Z,12.48
2022-11-25T14:58:15.165Z,13.85
2022-11-25T15:01:21.153Z,10.93
2022-11-25T15:04:29.199Z,11.95
2022-11-25T15:07:35.478Z,10.70
2022-11-25T15:10:43.366Z,10.57
2022-11-25T15:13:49.759Z,10.27
2022-11-25T15:16:55.172Z,12.32
2022-11-25T15:20:05.762Z,9.13
2022-11-25T15:23:15.166Z,12.38
2022-11-25T15:26:21.846Z,12.73
2022-11-25T15:29:27.908Z,9.65
2022-11-25T15:32:37.722Z,10.68
2022-11-25T15:35:45.576Z,11.55
2022-11-25T15:38:51.013Z,12.98
2022-11-25T15:41:58.077Z,8.90
2022-11-25T15:45:08.738Z,13.00
2022-11-25T15:48:18.360Z,10.50
2022-11-25T15:51:30.224Z,11.35
2022-11-25T15:54:37.048Z,9.23
2022-11-25T15:57:42.447Z,13.60
2022-11-25T16:01:02.805Z,11.10
2022-11-25T16:04:19.844Z,14.73
2022-11-25T16:07:27.853Z,9.98
2022-11-25T16:10:33.780Z,14.80
2022-11-25T16:13:40.240Z,13.20
2022-11-25T16:16:45.817Z,12.95
2022-11-25T16:19:51.390Z,10.38
2022-11-25T16:22:59.089Z,12.88
2022-11-25T16:26:05.548Z,10.43
2022-11-25T16:29:17.225Z,10.93
2022-11-25T16:32:23.213Z,8.98
2022-11-25T16:35:28.422Z,11.43
2022-11-25T16:38:36.421Z,8.77
2022-11-25T16:41:41.988Z,11.60
2022-11-25T16:44:48.898Z,9.48
2022-11-25T16:47:54.191Z,11.38
2022-11-25T16:51:01.079Z,13.35
2022-11-25T16:54:08.801Z,11.20
2022-11-25T16:57:18.191Z,14.60
2022-11-25T17:00:23.435Z,11.05
2022-11-25T17:03:29.081Z,10.73
2022-11-25T17:06:34.276Z,10.60
2022-11-25T17:09:42.093Z,10.75
2022-11-25T17:12:48.190Z,9.35
2022-11-25T17:15:53.462Z,12.55
2022-11-25T17:19:00.495Z,11.88
2022-11-25T17:22:06.385Z,9.50
2022-11-25T17:25:17.092Z,9.95
2022-11-25T17:28:23.403Z,15.05
2022-11-25T17:31:30.214Z,13.45
2022-11-25T17:34:39.852Z,14.25
2022-11-25T17:37:48.128Z,11.48
2022-11-25T17:40:58.027Z,12.70
2022-11-25T17:44:04.319Z,8.95
2022-11-25T17:47:14.309Z,10.68
2022-11-25T17:50:20.862Z,8.32
2022-11-25T17:53:26.290Z,10.93
2022-11-25T17:56:37.074Z,9.82
2022-11-25T17:59:42.393Z,12.38
2022-11-25T18:02:47.604Z,10.73
2022-11-25T18:05:52.916Z,11.80
2022-11-25T18:08:58.136Z,12.25
2022-11-25T18:12:13.951Z,12.38
2022-11-25T18:15:23.270Z,15.15
2022-11-25T18:18:28.639Z,14.48
2022-11-25T18:21:34.100Z,13.10
2022-11-25T18:24:40.319Z,10.88
2022-11-25T18:27:48.971Z,10.23
2022-11-25T18:30:56.006Z,12.02
2022-11-25T18:34:01.125Z,12.90
2022-11-25T18:37:06.540Z,9.85
2022-11-25T18:40:12.112Z,11.20
2022-11-25T18:43:22.456Z,9.05
2022-11-25T18:46:27.777Z,12.10
2022-11-25T18:49:33.068Z,8.55
2022-11-25T18:52:38.628Z,8.50
2022-11-25T18:55:44.380Z,8.23
2022-11-25T18:58:53.915Z,8.25
2022-11-25T19:01:58.954Z,10.60
2022-11-25T19:05:04.276Z,10.75
2022-11-25T19:08:09.253Z,9.55
2022-11-25T19:11:17.133Z,10.10
2022-11-25T19:14:30.231Z,10.77
2022-11-25T19:17:35.543Z,8.57
2022-11-25T19:20:41.000Z,8.57
2022-11-25T19:23:46.755Z,7.63
2022-11-25T19:26:53.082Z,9.93
2022-11-25T19:30:01.146Z,10.00
2022-11-25T19:33:11.651Z,8.52
2022-11-25T19:36:20.859Z,8.98
2022-11-25T19:39:26.196Z,10.38
2022-11-25T19:42:32.171Z,10.10
2022-11-25T19:45:40.247Z,8.70
2022-11-25T19:48:45.582Z,10.07
2022-11-25T19:51:50.686Z,9.23
2022-11-25T19:54:55.905Z,9.43
2022-11-25T19:58:01.367Z,9.30
2022-11-25T20:01:09.971Z,8.98
2022-11-25T20:07:21.361Z,8.25
2022-11-25T20:10:27.425Z,10.23
2022-11-25T20:13:32.436Z,9.63
2022-11-25T20:16:41.918Z,9.52
2022-11-25T20:19:47.167Z,11.45
2022-11-25T20:22:56.926Z,10.48
2022-11-25T20:26:02.164Z,10.57
2022-11-25T20:29:13.617Z,9.65
2022-11-25T20:32:25.348Z,9.85
2022-11-25T20:35:31.966Z,10.25
2022-11-25T20:38:38.448Z,10.07
2022-11-25T20:41:43.654Z,8.35
2022-11-25T20:44:52.083Z,10.10
2022-11-25T20:48:02.749Z,10.32
2022-11-25T20:51:09.753Z,10.55
2022-11-25T20:54:14.961Z,8.93
2022-11-25T20:57:20.154Z,8.60
2022-11-25T21:00:26.001Z,9.15
2022-11-25T21:03:33.877Z,8.30
2022-11-25T21:06:41.304Z,8.68
2022-11-25T21:09:46.708Z,9.57
2022-11-25T21:12:52.139Z,10.30
2022-11-25T21:15:57.800Z,11.13
2022-11-25T21:19:05.750Z,11.43
2022-11-25T21:22:13.583Z,8.50
2022-11-25T21:25:20.188Z,8.73
2022-11-25T21:28:26.795Z,8.75
2022-11-25T21:31:31.874Z,9.95
2022-11-25T21:34:39.969Z,9.63
2022-11-25T21:37:46.490Z,8.68
2022-11-25T21:40:52.960Z,10.70
2022-11-25T21:43:58.108Z,10.27
2022-11-25T21:47:03.478Z,11.65
2022-11-25T21:50:16.385Z,10.82
2022-11-25T21:53:22.046Z,10.52
2022-11-25T21:56:28.832Z,11.35
2022-11-25T21:59:34.127Z,11.30
2022-11-25T22:02:39.161Z,10.02
2022-11-25T22:05:47.347Z,11.85
2022-11-25T22:08:52.810Z,13.80
2022-11-25T22:11:58.223Z,12.57
2022-11-25T22:15:04.028Z,10.00
2022-11-25T22:18:09.329Z,10.80
2022-11-25T22:21:17.623Z,13.05
2022-11-25T22:27:28.579Z,12.32
2022-11-25T22:30:33.795Z,12.68
2022-11-25T22:33:40.088Z,12.35
2022-11-25T22:36:48.367Z,11.00
2022-11-25T22:39:53.641Z,13.13
2022-11-25T22:43:01.103Z,14.52
2022-11-25T22:46:06.839Z,13.02
2022-11-25T22:49:14.011Z,11.45
2022-11-25T22:52:24.213Z,16.10
2022-11-25T22:55:30.376Z,13.82
2022-11-25T22:58:35.376Z,11.85
2022-11-25T23:01:40.623Z,16.42
2022-11-25T23:04:45.786Z,14.85
2022-11-25T23:07:53.697Z,17.08
2022-11-25T23:10:59.579Z,15.35
2022-11-25T23:14:04.722Z,15.90
2022-11-25T23:17:10.069Z,13.80
2022-11-25T23:20:17.686Z,14.50
2022-11-25T23:23:27.213Z,16.83
2022-11-25T23:29:51.278Z,17.48
2022-11-25T23:32:56.744Z,16.08
2022-11-25T23:36:06.166Z,16.38
2022-11-25T23:39:19.713Z,15.40
2022-11-25T23:42:25.291Z,14.65
2022-11-25T23:45:30.497Z,18.33
2022-11-25T23:48:35.571Z,17.25
2022-11-25T23:51:40.614Z,17.50
2022-11-25T23:54:49.793Z,16.67
2022-11-25T23:57:55.064Z,15.00
